sensor_id;sensor_type;location;lat;lon;timestamp;P1;durP1;ratioP1;P2;durP2;ratioP2
41709;SDS011;59402;48.396;-4.472;2023-01-24T00:01:41;17.25;;;12.30;;
41709;SDS011;59402;48.396;-4.472;2023-01-24T00:04:07;18.48;;;11.48;;
41709;SDS011;59402;48.396;-4.472;2023-01-24T00:06:33;20.33;;;11.52;;
41709;SDS011;59402;48.396;-4.472;2023-01-24T00:08:58;17.30;;;11.13;;
41709;SDS011;59402;48.396;-4.472;2023-01-24T00:11:24;22.83;;;12.43;;
41709;SDS011;59402;48.396;-4.472;2023-01-24T00:13:50;18.80;;;11.20;;
41709;SDS011;59402;48.396;-4.472;2023-01-24T00:16:19;16.80;;;11.98;;
41709;SDS011;59402;48.396;-4.472;2023-01-24T00:18:46;17.10;;;12.35;;
41709;SDS011;59402;48.396;-4.472;2023-01-24T00:21:19;17.75;;;12.02;;
41709;SDS011;59402;48.396;-4.472;2023-01-24T00:23:47;21.63;;;12.93;;
41709;SDS011;59402;48.396;-4.472;2023-01-24T00:26:14;17.75;;;12.43;;
41709;SDS011;59402;48.396;-4.472;2023-01-24T00:28:44;22.25;;;13.20;;
41709;SDS011;59402;48.396;-4.472;2023-01-24T00:31:11;19.67;;;12.48;;
41709;SDS011;59402;48.396;-4.472;2023-01-24T00:33:37;18.60;;;11.63;;
41709;SDS011;59402;48.396;-4.472;2023-01-24T00:36:03;21.35;;;13.00;;
41709;SDS011;59402;48.396;-4.472;2023-01-24T00:38:30;19.90;;;12.13;;
41709;SDS011;59402;48.396;-4.472;2023-01-24T00:40:56;21.15;;;12.02;;
41709;SDS011;59402;48.396;-4.472;2023-01-24T00:43:22;20.95;;;13.63;;
41709;SDS011;59402;48.396;-4.472;2023-01-24T00:45:48;20.13;;;13.98;;
41709;SDS011;59402;48.396;-4.472;2023-01-24T00:48:14;20.90;;;13.65;;
41709;SDS011;59402;48.396;-4.472;2023-01-24T00:50:40;18.48;;;13.45;;
41709;SDS011;59402;48.396;-4.472;2023-01-24T00:53:06;21.27;;;14.68;;
41709;SDS011;59402;48.396;-4.472;2023-01-24T00:55:32;22.60;;;15.05;;
41709;SDS011;59402;48.396;-4.472;2023-01-24T00:57:58;20.40;;;14.48;;
41709;SDS011;59402;48.396;-4.472;2023-01-24T01:00:24;20.23;;;14.05;;
41709;SDS011;59402;48.396;-4.472;2023-01-24T01:02:50;20.95;;;14.80;;
41709;SDS011;59402;48.396;-4.472;2023-01-24T01:05:17;21.90;;;14.25;;
41709;SDS011;59402;48.396;-4.472;2023-01-24T01:07:43;18.60;;;14.57;;
41709;SDS011;59402;48.396;-4.472;2023-01-24T01:10:09;19.15;;;13.75;;
41709;SDS011;59402;48.396;-4.472;2023-01-24T01:12:35;19.75;;;13.68;;
41709;SDS011;59402;48.396;-4.472;2023-01-24T01:15:02;22.95;;;14.55;;
41709;SDS011;59402;48.396;-4.472;2023-01-24T01:17:28;24.33;;;14.90;;
41709;SDS011;59402;48.396;-4.472;2023-01-24T01:19:54;24.00;;;14.30;;
41709;SDS011;59402;48.396;-4.472;2023-01-24T01:22:20;22.05;;;14.43;;
41709;SDS011;59402;48.396;-4.472;2023-01-24T01:24:46;22.30;;;14.07;;
41709;SDS011;59402;48.396;-4.472;2023-01-24T01:27:12;19.88;;;14.27;;
41709;SDS011;59402;48.396;-4.472;2023-01-24T01:29:38;22.75;;;14.48;;
41709;SDS011;59402;48.396;-4.472;2023-01-24T01:32:04;23.08;;;14.85;;
41709;SDS011;59402;48.396;-4.472;2023-01-24T01:34:30;20.92;;;14.20;;
41709;SDS011;59402;48.396;-4.472;2023-01-24T01:36:55;21.23;;;14.30;;
41709;SDS011;59402;48.396;-4.472;2023-01-24T01:39:21;22.23;;;14.13;;
41709;SDS011;59402;48.396;-4.472;2023-01-24T01:41:47;21.10;;;13.95;;
41709;SDS011;59402;48.396;-4.472;2023-01-24T01:44:17;19.10;;;13.85;;
41709;SDS011;59402;48.396;-4.472;2023-01-24T01:47:36;20.67;;;13.85;;
41709;SDS011;59402;48.396;-4.472;2023-01-24T01:50:03;19.75;;;13.48;;
41709;SDS011;59402;48.396;-4.472;2023-01-24T01:52:41;19.20;;;13.63;;
41709;SDS011;59402;48.396;-4.472;2023-01-24T01:55:10;22.73;;;14.27;;
41709;SDS011;59402;48.396;-4.472;2023-01-24T01:57:38;26.02;;;14.30;;
41709;SDS011;59402;48.396;-4.472;2023-01-24T02:00:09;21.20;;;13.53;;
41709;SDS011;59402;48.396;-4.472;2023-01-24T02:02:38;20.15;;;13.25;;
41709;SDS011;59402;48.396;-4.472;2023-01-24T02:05:07;20.70;;;13.77;;
41709;SDS011;59402;48.396;-4.472;2023-01-24T02:07:44;20.30;;;13.20;;
41709;SDS011;59402;48.396;-4.472;2023-01-24T02:10:15;20.27;;;13.15;;
41709;SDS011;59402;48.396;-4.472;2023-01-24T02:15:10;19.97;;;13.47;;
41709;SDS011;59402;48.396;-4.472;2023-01-24T02:17:56;21.40;;;12.50;;
41709;SDS011;59402;48.396;-4.472;2023-01-24T02:30:28;19.50;;;12.95;;
41709;SDS011;59402;48.396;-4.472;2023-01-24T02:35:26;19.75;;;12.77;;
41709;SDS011;59402;48.396;-4.472;2023-01-24T02:37:56;18.15;;;12.18;;
41709;SDS011;59402;48.396;-4.472;2023-01-24T02:40:27;18.70;;;12.45;;
41709;SDS011;59402;48.396;-4.472;2023-01-24T02:42:55;19.75;;;12.98;;
41709;SDS011;59402;48.396;-4.472;2023-01-24T02:45:23;18.98;;;13.43;;
41709;SDS011;59402;48.396;-4.472;2023-01-24T02:47:52;19.23;;;12.75;;
41709;SDS011;59402;48.396;-4.472;2023-01-24T02:50:20;21.05;;;13.50;;
41709;SDS011;59402;48.396;-4.472;2023-01-24T02:52:52;20.38;;;13.05;;
41709;SDS011;59402;48.396;-4.472;2023-01-24T02:55:37;19.02;;;12.40;;
41709;SDS011;59402;48.396;-4.472;2023-01-24T02:58:23;19.27;;;12.70;;
41709;SDS011;59402;48.396;-4.472;2023-01-24T03:00:49;19.17;;;13.18;;
41709;SDS011;59402;48.396;-4.472;2023-01-24T03:03:16;19.37;;;13.60;;
41709;SDS011;59402;48.396;-4.472;2023-01-24T03:05:42;21.05;;;12.43;;
41709;SDS011;59402;48.396;-4.472;2023-01-24T03:08:34;18.90;;;12.52;;
41709;SDS011;59402;48.396;-4.472;2023-01-24T03:11:05;20.45;;;12.10;;
41709;SDS011;59402;48.396;-4.472;2023-01-24T03:13:31;20.33;;;13.25;;
41709;SDS011;59402;48.396;-4.472;2023-01-24T03:16:17;18.52;;;12.68;;
41709;SDS011;59402;48.396;-4.472;2023-01-24T03:19:01;20.45;;;12.45;;
41709;SDS011;59402;48.396;-4.472;2023-01-24T03:21:46;17.60;;;12.05;;
41709;SDS011;59402;48.396;-4.472;2023-01-24T03:24:30;16.42;;;12.30;;
41709;SDS011;59402;48.396;-4.472;2023-01-24T03:27:15;18.88;;;12.85;;
41709;SDS011;59402;48.396;-4.472;2023-01-24T03:29:59;18.30;;;12.20;;
41709;SDS011;59402;48.396;-4.472;2023-01-24T03:32:44;19.52;;;12.95;;
41709;SDS011;59402;48.396;-4.472;2023-01-24T03:35:29;19.58;;;13.27;;
41709;SDS011;59402;48.396;-4.472;2023-01-24T03:37:56;18.30;;;12.30;;
41709;SDS011;59402;48.396;-4.472;2023-01-24T03:40:40;18.98;;;11.68;;
41709;SDS011;59402;48.396;-4.472;2023-01-24T03:43:06;18.45;;;13.63;;
41709;SDS011;59402;48.396;-4.472;2023-01-24T03:45:36;19.02;;;12.88;;
41709;SDS011;59402;48.396;-4.472;2023-01-24T03:48:05;17.08;;;11.35;;
41709;SDS011;59402;48.396;-4.472;2023-01-24T03:50:39;18.63;;;12.25;;
41709;SDS011;59402;48.396;-4.472;2023-01-24T03:53:28;22.05;;;12.98;;
41709;SDS011;59402;48.396;-4.472;2023-01-24T03:58:23;20.83;;;12.02;;
41709;SDS011;59402;48.396;-4.472;2023-01-24T04:00:51;20.05;;;12.40;;
41709;SDS011;59402;48.396;-4.472;2023-01-24T04:03:36;18.63;;;12.82;;
41709;SDS011;59402;48.396;-4.472;2023-01-24T04:06:02;18.85;;;12.88;;
41709;SDS011;59402;48.396;-4.472;2023-01-24T04:08:28;18.63;;;13.10;;
41709;SDS011;59402;48.396;-4.472;2023-01-24T04:10:55;20.30;;;13.15;;
41709;SDS011;59402;48.396;-4.472;2023-01-24T04:13:22;20.77;;;13.05;;
41709;SDS011;59402;48.396;-4.472;2023-01-24T04:15:48;22.20;;;13.98;;
41709;SDS011;59402;48.396;-4.472;2023-01-24T04:18:30;20.15;;;13.93;;
41709;SDS011;59402;48.396;-4.472;2023-01-24T04:21:00;19.83;;;13.27;;
41709;SDS011;59402;48.396;-4.472;2023-01-24T04:23:26;22.08;;;13.85;;
41709;SDS011;59402;48.396;-4.472;2023-01-24T04:25:52;19.70;;;13.15;;
41709;SDS011;59402;48.396;-4.472;2023-01-24T04:28:23;22.10;;;12.82;;
41709;SDS011;59402;48.396;-4.472;2023-01-24T04:30:55;22.67;;;14.43;;
41709;SDS011;59402;48.396;-4.472;2023-01-24T04:33:39;22.33;;;13.75;;
41709;SDS011;59402;48.396;-4.472;2023-01-24T04:36:05;22.85;;;14.52;;
41709;SDS011;59402;48.396;-4.472;2023-01-24T04:38:31;21.98;;;14.35;;
41709;SDS011;59402;48.396;-4.472;2023-01-24T04:41:08;20.23;;;13.95;;
41709;SDS011;59402;48.396;-4.472;2023-01-24T04:43:39;21.63;;;14.30;;
41709;SDS011;59402;48.396;-4.472;2023-01-24T04:46:05;21.08;;;15.05;;
41709;SDS011;59402;48.396;-4.472;2023-01-24T04:48:53;19.92;;;14.75;;
41709;SDS011;59402;48.396;-4.472;2023-01-24T04:51:19;20.88;;;14.23;;
41709;SDS011;59402;48.396;-4.472;2023-01-24T04:53:46;21.98;;;14.85;;
41709;SDS011;59402;48.396;-4.472;2023-01-24T04:56:15;24.52;;;14.70;;
41709;SDS011;59402;48.396;-4.472;2023-01-24T04:58:40;23.10;;;15.05;;
41709;SDS011;59402;48.396;-4.472;2023-01-24T05:01:06;23.98;;;15.88;;
41709;SDS011;59402;48.396;-4.472;2023-01-24T05:03:38;22.95;;;14.10;;
41709;SDS011;59402;48.396;-4.472;2023-01-24T05:06:04;20.70;;;15.02;;
41709;SDS011;59402;48.396;-4.472;2023-01-24T05:08:31;22.70;;;14.98;;
41709;SDS011;59402;48.396;-4.472;2023-01-24T05:11:03;23.75;;;15.23;;
41709;SDS011;59402;48.396;-4.472;2023-01-24T05:13:34;22.45;;;14.15;;
41709;SDS011;59402;48.396;-4.472;2023-01-24T05:15:59;21.00;;;14.65;;
41709;SDS011;59402;48.396;-4.472;2023-01-24T05:18:25;22.65;;;14.45;;
41709;SDS011;59402;48.396;-4.472;2023-01-24T05:20:51;25.27;;;15.70;;
41709;SDS011;59402;48.396;-4.472;2023-01-24T05:23:17;21.30;;;14.52;;
41709;SDS011;59402;48.396;-4.472;2023-01-24T05:25:46;24.98;;;15.73;;
41709;SDS011;59402;48.396;-4.472;2023-01-24T05:28:12;21.98;;;15.20;;
41709;SDS011;59402;48.396;-4.472;2023-01-24T05:30:42;20.70;;;14.73;;
41709;SDS011;59402;48.396;-4.472;2023-01-24T05:33:25;18.85;;;14.57;;
41709;SDS011;59402;48.396;-4.472;2023-01-24T05:36:00;25.17;;;14.60;;
41709;SDS011;59402;48.396;-4.472;2023-01-24T05:38:32;28.20;;;14.52;;
41709;SDS011;59402;48.396;-4.472;2023-01-24T05:41:08;20.88;;;15.15;;
41709;SDS011;59402;48.396;-4.472;2023-01-24T05:43:36;22.75;;;14.82;;
41709;SDS011;59402;48.396;-4.472;2023-01-24T05:46:04;22.10;;;14.40;;
41709;SDS011;59402;48.396;-4.472;2023-01-24T05:48:36;21.35;;;14.05;;
41709;SDS011;59402;48.396;-4.472;2023-01-24T05:51:06;22.13;;;15.07;;
41709;SDS011;59402;48.396;-4.472;2023-01-24T05:53:33;21.55;;;14.73;;
41709;SDS011;59402;48.396;-4.472;2023-01-24T05:56:02;22.70;;;14.25;;
41709;SDS011;59402;48.396;-4.472;2023-01-24T05:58:32;21.77;;;14.02;;
41709;SDS011;59402;48.396;-4.472;2023-01-24T06:01:18;21.98;;;14.15;;
41709;SDS011;59402;48.396;-4.472;2023-01-24T06:03:46;20.27;;;13.60;;
41709;SDS011;59402;48.396;-4.472;2023-01-24T06:06:13;19.20;;;13.77;;
41709;SDS011;59402;48.396;-4.472;2023-01-24T06:08:40;22.67;;;13.25;;
41709;SDS011;59402;48.396;-4.472;2023-01-24T06:11:10;22.77;;;13.98;;
41709;SDS011;59402;48.396;-4.472;2023-01-24T06:13:38;19.80;;;12.85;;
41709;SDS011;59402;48.396;-4.472;2023-01-24T06:16:04;17.77;;;12.68;;
41709;SDS011;59402;48.396;-4.472;2023-01-24T06:18:35;22.70;;;13.45;;
41709;SDS011;59402;48.396;-4.472;2023-01-24T06:21:05;19.83;;;12.32;;
41709;SDS011;59402;48.396;-4.472;2023-01-24T06:23:38;22.27;;;14.00;;
41709;SDS011;59402;48.396;-4.472;2023-01-24T06:26:04;19.35;;;13.35;;
41709;SDS011;59402;48.396;-4.472;2023-01-24T06:28:32;19.33;;;13.20;;
41709;SDS011;59402;48.396;-4.472;2023-01-24T06:31:21;23.27;;;12.85;;
41709;SDS011;59402;48.396;-4.472;2023-01-24T06:34:19;21.10;;;13.02;;
41709;SDS011;59402;48.396;-4.472;2023-01-24T06:39:50;18.38;;;12.82;;
41709;SDS011;59402;48.396;-4.472;2023-01-24T06:42:17;19.50;;;12.80;;
41709;SDS011;59402;48.396;-4.472;2023-01-24T06:44:44;19.30;;;13.15;;
41709;SDS011;59402;48.396;-4.472;2023-01-24T06:47:10;20.15;;;12.98;;
41709;SDS011;59402;48.396;-4.472;2023-01-24T06:49:36;19.13;;;12.32;;
41709;SDS011;59402;48.396;-4.472;2023-01-24T06:52:03;21.88;;;12.85;;
41709;SDS011;59402;48.396;-4.472;2023-01-24T06:54:29;24.80;;;13.45;;
41709;SDS011;59402;48.396;-4.472;2023-01-24T06:56:55;20.83;;;13.18;;
41709;SDS011;59402;48.396;-4.472;2023-01-24T06:59:20;18.42;;;12.55;;
41709;SDS011;59402;48.396;-4.472;2023-01-24T07:01:48;20.25;;;13.02;;
41709;SDS011;59402;48.396;-4.472;2023-01-24T07:04:14;19.30;;;13.85;;
41709;SDS011;59402;48.396;-4.472;2023-01-24T07:06:40;19.65;;;13.85;;
41709;SDS011;59402;48.396;-4.472;2023-01-24T07:09:06;25.00;;;15.25;;
41709;SDS011;59402;48.396;-4.472;2023-01-24T07:11:32;22.45;;;15.13;;
41709;SDS011;59402;48.396;-4.472;2023-01-24T07:13:57;21.70;;;14.95;;
41709;SDS011;59402;48.396;-4.472;2023-01-24T07:16:23;24.05;;;14.70;;
41709;SDS011;59402;48.396;-4.472;2023-01-24T07:18:49;22.70;;;14.95;;
41709;SDS011;59402;48.396;-4.472;2023-01-24T07:21:15;25.85;;;14.25;;
41709;SDS011;59402;48.396;-4.472;2023-01-24T07:23:44;18.17;;;12.75;;
41709;SDS011;59402;48.396;-4.472;2023-01-24T07:26:13;25.58;;;14.13;;
41709;SDS011;59402;48.396;-4.472;2023-01-24T07:28:40;21.92;;;13.05;;
41709;SDS011;59402;48.396;-4.472;2023-01-24T07:31:06;21.27;;;13.05;;
41709;SDS011;59402;48.396;-4.472;2023-01-24T07:33:33;22.65;;;12.98;;
41709;SDS011;59402;48.396;-4.472;2023-01-24T07:35:58;17.85;;;12.32;;
41709;SDS011;59402;48.396;-4.472;2023-01-24T07:38:24;24.40;;;13.10;;
41709;SDS011;59402;48.396;-4.472;2023-01-24T07:40:50;22.95;;;13.60;;
41709;SDS011;59402;48.396;-4.472;2023-01-24T07:43:16;24.20;;;13.52;;
41709;SDS011;59402;48.396;-4.472;2023-01-24T07:45:46;23.88;;;13.77;;
41709;SDS011;59402;48.396;-4.472;2023-01-24T07:48:12;21.92;;;14.38;;
41709;SDS011;59402;48.396;-4.472;2023-01-24T07:50:38;17.80;;;12.30;;
41709;SDS011;59402;48.396;-4.472;2023-01-24T07:53:04;21.60;;;13.13;;
41709;SDS011;59402;48.396;-4.472;2023-01-24T07:55:30;20.88;;;12.30;;
41709;SDS011;59402;48.396;-4.472;2023-01-24T07:57:59;24.88;;;12.30;;
41709;SDS011;59402;48.396;-4.472;2023-01-24T08:00:26;19.52;;;12.30;;
41709;SDS011;59402;48.396;-4.472;2023-01-24T08:02:52;19.15;;;11.93;;
41709;SDS011;59402;48.396;-4.472;2023-01-24T08:05:17;18.92;;;12.77;;
41709;SDS011;59402;48.396;-4.472;2023-01-24T08:07:43;19.95;;;11.77;;
41709;SDS011;59402;48.396;-4.472;2023-01-24T08:10:09;18.52;;;11.65;;
41709;SDS011;59402;48.396;-4.472;2023-01-24T08:12:35;24.23;;;13.18;;
41709;SDS011;59402;48.396;-4.472;2023-01-24T08:15:01;17.95;;;12.25;;
41709;SDS011;59402;48.396;-4.472;2023-01-24T08:17:27;21.88;;;13.05;;
41709;SDS011;59402;48.396;-4.472;2023-01-24T08:19:53;19.25;;;12.77;;
41709;SDS011;59402;48.396;-4.472;2023-01-24T08:22:19;24.05;;;13.23;;
41709;SDS011;59402;48.396;-4.472;2023-01-24T08:24:45;21.10;;;13.07;;
41709;SDS011;59402;48.396;-4.472;2023-01-24T08:27:10;17.67;;;12.45;;
41709;SDS011;59402;48.396;-4.472;2023-01-24T08:29:36;19.80;;;11.57;;
41709;SDS011;59402;48.396;-4.472;2023-01-24T08:32:02;19.95;;;11.63;;
41709;SDS011;59402;48.396;-4.472;2023-01-24T08:34:28;21.80;;;12.43;;
41709;SDS011;59402;48.396;-4.472;2023-01-24T08:36:53;19.67;;;12.57;;
41709;SDS011;59402;48.396;-4.472;2023-01-24T08:39:19;23.77;;;13.65;;
41709;SDS011;59402;48.396;-4.472;2023-01-24T08:41:45;19.70;;;11.95;;
41709;SDS011;59402;48.396;-4.472;2023-01-24T08:44:14;21.33;;;12.93;;
41709;SDS011;59402;48.396;-4.472;2023-01-24T08:46:41;20.95;;;13.55;;
41709;SDS011;59402;48.396;-4.472;2023-01-24T08:49:08;20.88;;;12.65;;
41709;SDS011;59402;48.396;-4.472;2023-01-24T08:54:00;19.65;;;12.00;;
41709;SDS011;59402;48.396;-4.472;2023-01-24T08:56:26;21.38;;;12.50;;
41709;SDS011;59402;48.396;-4.472;2023-01-24T08:58:52;23.63;;;13.25;;
41709;SDS011;59402;48.396;-4.472;2023-01-24T09:01:18;23.30;;;13.32;;
41709;SDS011;59402;48.396;-4.472;2023-01-24T09:03:45;23.73;;;11.88;;
41709;SDS011;59402;48.396;-4.472;2023-01-24T09:06:11;21.20;;;12.73;;
41709;SDS011;59402;48.396;-4.472;2023-01-24T09:08:36;22.58;;;12.77;;
41709;SDS011;59402;48.396;-4.472;2023-01-24T09:11:02;18.65;;;12.88;;
41709;SDS011;59402;48.396;-4.472;2023-01-24T09:13:28;22.48;;;12.05;;
41709;SDS011;59402;48.396;-4.472;2023-01-24T09:15:56;22.20;;;13.77;;
41709;SDS011;59402;48.396;-4.472;2023-01-24T09:18:23;20.88;;;12.20;;
41709;SDS011;59402;48.396;-4.472;2023-01-24T09:20:48;20.38;;;12.52;;
41709;SDS011;59402;48.396;-4.472;2023-01-24T09:23:14;17.63;;;11.77;;
41709;SDS011;59402;48.396;-4.472;2023-01-24T09:25:41;21.10;;;12.15;;
41709;SDS011;59402;48.396;-4.472;2023-01-24T09:28:07;16.52;;;11.57;;
41709;SDS011;59402;48.396;-4.472;2023-01-24T09:30:33;22.75;;;13.63;;
41709;SDS011;59402;48.396;-4.472;2023-01-24T09:33:03;22.98;;;12.77;;
41709;SDS011;59402;48.396;-4.472;2023-01-24T09:35:29;20.95;;;12.60;;
41709;SDS011;59402;48.396;-4.472;2023-01-24T09:37:55;18.52;;;12.57;;
41709;SDS011;59402;48.396;-4.472;2023-01-24T09:40:22;16.48;;;11.13;;
41709;SDS011;59402;48.396;-4.472;2023-01-24T09:42:56;18.85;;;11.75;;
41709;SDS011;59402;48.396;-4.472;2023-01-24T09:45:45;19.13;;;12.07;;
41709;SDS011;59402;48.396;-4.472;2023-01-24T09:48:17;18.95;;;11.77;;
41709;SDS011;59402;48.396;-4.472;2023-01-24T09:50:45;20.05;;;11.38;;
41709;SDS011;59402;48.396;-4.472;2023-01-24T09:53:39;25.92;;;11.73;;
41709;SDS011;59402;48.396;-4.472;2023-01-24T09:56:07;19.13;;;11.48;;
41709;SDS011;59402;48.396;-4.472;2023-01-24T09:59:12;16.95;;;11.20;;
41709;SDS011;59402;48.396;-4.472;2023-01-24T10:01:46;15.20;;;9.48;;
41709;SDS011;59402;48.396;-4.472;2023-01-24T10:04:14;14.63;;;10.38;;
41709;SDS011;59402;48.396;-4.472;2023-01-24T10:06:58;18.42;;;10.98;;
41709;SDS011;59402;48.396;-4.472;2023-01-24T10:12:05;18.45;;;10.57;;
41709;SDS011;59402;48.396;-4.472;2023-01-24T10:17:46;21.33;;;12.10;;
41709;SDS011;59402;48.396;-4.472;2023-01-24T10:26:01;18.52;;;11.15;;
41709;SDS011;59402;48.396;-4.472;2023-01-24T10:28:51;17.13;;;11.07;;
41709;SDS011;59402;48.396;-4.472;2023-01-24T10:31:31;19.88;;;11.93;;
41709;SDS011;59402;48.396;-4.472;2023-01-24T10:34:12;16.20;;;12.10;;
41709;SDS011;59402;48.396;-4.472;2023-01-24T10:37:02;19.23;;;11.63;;
41709;SDS011;59402;48.396;-4.472;2023-01-24T10:39:36;22.13;;;11.48;;
41709;SDS011;59402;48.396;-4.472;2023-01-24T10:42:11;19.42;;;11.35;;
41709;SDS011;59402;48.396;-4.472;2023-01-24T10:44:49;18.20;;;11.73;;
41709;SDS011;59402;48.396;-4.472;2023-01-24T10:50:09;17.08;;;10.43;;
41709;SDS011;59402;48.396;-4.472;2023-01-24T10:52:37;16.30;;;10.82;;
41709;SDS011;59402;48.396;-4.472;2023-01-24T10:55:05;15.10;;;10.40;;
41709;SDS011;59402;48.396;-4.472;2023-01-24T10:57:59;17.70;;;10.27;;
41709;SDS011;59402;48.396;-4.472;2023-01-24T11:02:59;18.52;;;10.88;;
41709;SDS011;59402;48.396;-4.472;2023-01-24T11:05:42;18.20;;;11.02;;
41709;SDS011;59402;48.396;-4.472;2023-01-24T11:08:18;12.90;;;9.45;;
41709;SDS011;59402;48.396;-4.472;2023-01-24T11:10:56;19.75;;;11.05;;
41709;SDS011;59402;48.396;-4.472;2023-01-24T11:13:33;16.65;;;10.93;;
41709;SDS011;59402;48.396;-4.472;2023-01-24T11:16:09;17.88;;;10.60;;
41709;SDS011;59402;48.396;-4.472;2023-01-24T11:18:48;18.90;;;10.68;;
41709;SDS011;59402;48.396;-4.472;2023-01-24T11:21:29;19.30;;;11.30;;
41709;SDS011;59402;48.396;-4.472;2023-01-24T11:24:00;16.67;;;11.52;;
41709;SDS011;59402;48.396;-4.472;2023-01-24T11:26:31;21.95;;;11.80;;
41709;SDS011;59402;48.396;-4.472;2023-01-24T11:29:05;19.42;;;10.90;;
41709;SDS011;59402;48.396;-4.472;2023-01-24T11:31:43;16.15;;;10.98;;
41709;SDS011;59402;48.396;-4.472;2023-01-24T11:37:04;17.75;;;11.90;;
41709;SDS011;59402;48.396;-4.472;2023-01-24T11:42:05;18.08;;;10.65;;
41709;SDS011;59402;48.396;-4.472;2023-01-24T11:47:36;16.52;;;10.48;;
41709;SDS011;59402;48.396;-4.472;2023-01-24T11:50:26;17.02;;;10.55;;
41709;SDS011;59402;48.396;-4.472;2023-01-24T11:58:25;15.57;;;10.95;;
41709;SDS011;59402;48.396;-4.472;2023-01-24T12:04:02;15.73;;;10.35;;
41709;SDS011;59402;48.396;-4.472;2023-01-24T12:06:43;14.65;;;9.70;;
41709;SDS011;59402;48.396;-4.472;2023-01-24T12:09:49;13.63;;;9.15;;
41709;SDS011;59402;48.396;-4.472;2023-01-24T12:12:20;14.82;;;9.98;;
41709;SDS011;59402;48.396;-4.472;2023-01-24T12:17:50;17.25;;;10.60;;
41709;SDS011;59402;48.396;-4.472;2023-01-24T12:21:16;14.73;;;10.88;;
41709;SDS011;59402;48.396;-4.472;2023-01-24T12:27:05;18.73;;;10.52;;
41709;SDS011;59402;48.396;-4.472;2023-01-24T12:29:16;16.63;;;10.38;;
41709;SDS011;59402;48.396;-4.472;2023-01-24T12:31:54;21.42;;;10.68;;
41709;SDS011;59402;48.396;-4.472;2023-01-24T12:45:11;19.85;;;11.15;;
41709;SDS011;59402;48.396;-4.472;2023-01-24T12:47:47;15.93;;;10.98;;
41709;SDS011;59402;48.396;-4.472;2023-01-24T12:58:40;13.10;;;9.88;;
41709;SDS011;59402;48.396;-4.472;2023-01-24T13:01:24;16.25;;;9.98;;
41709;SDS011;59402;48.396;-4.472;2023-01-24T13:12:27;12.10;;;7.50;;
41709;SDS011;59402;48.396;-4.472;2023-01-24T13:20:37;13.35;;;7.97;;
41709;SDS011;59402;48.396;-4.472;2023-01-24T13:33:56;12.65;;;7.00;;
41709;SDS011;59402;48.396;-4.472;2023-01-24T13:36:26;10.95;;;7.10;;
41709;SDS011;59402;48.396;-4.472;2023-01-24T13:38:56;13.75;;;8.60;;
41709;SDS011;59402;48.396;-4.472;2023-01-24T13:50:01;10.60;;;6.47;;
41709;SDS011;59402;48.396;-4.472;2023-01-24T13:51:59;10.25;;;5.72;;
41709;SDS011;59402;48.396;-4.472;2023-01-24T13:54:38;8.68;;;6.20;;
41709;SDS011;59402;48.396;-4.472;2023-01-24T14:07:53;9.82;;;6.82;;
41709;SDS011;59402;48.396;-4.472;2023-01-24T14:13:05;9.18;;;5.68;;
41709;SDS011;59402;48.396;-4.472;2023-01-24T14:18:39;8.65;;;5.05;;
41709;SDS011;59402;48.396;-4.472;2023-01-24T14:21:13;9.25;;;6.60;;
41709;SDS011;59402;48.396;-4.472;2023-01-24T14:23:44;10.52;;;6.28;;
41709;SDS011;59402;48.396;-4.472;2023-01-24T14:26:15;11.50;;;5.93;;
41709;SDS011;59402;48.396;-4.472;2023-01-24T14:28:51;11.32;;;7.32;;
41709;SDS011;59402;48.396;-4.472;2023-01-24T14:34:07;13.68;;;7.38;;
41709;SDS011;59402;48.396;-4.472;2023-01-24T14:36:36;13.88;;;6.68;;
41709;SDS011;59402;48.396;-4.472;2023-01-24T14:44:54;12.35;;;6.68;;
41709;SDS011;59402;48.396;-4.472;2023-01-24T14:47:21;13.00;;;6.60;;
41709;SDS011;59402;48.396;-4.472;2023-01-24T14:49:49;12.50;;;6.43;;
41709;SDS011;59402;48.396;-4.472;2023-01-24T14:52:18;10.05;;;5.68;;
41709;SDS011;59402;48.396;-4.472;2023-01-24T14:54:48;8.95;;;6.05;;
41709;SDS011;59402;48.396;-4.472;2023-01-24T14:57:30;9.40;;;5.43;;
41709;SDS011;59402;48.396;-4.472;2023-01-24T15:00:19;11.43;;;5.72;;
41709;SDS011;59402;48.396;-4.472;2023-01-24T15:02:54;11.73;;;5.25;;
41709;SDS011;59402;48.396;-4.472;2023-01-24T15:07:51;8.93;;;5.15;;
41709;SDS011;59402;48.396;-4.472;2023-01-24T15:10:24;10.30;;;5.45;;
41709;SDS011;59402;48.396;-4.472;2023-01-24T15:12:54;7.45;;;5.13;;
41709;SDS011;59402;48.396;-4.472;2023-01-24T15:15:22;10.07;;;5.63;;
41709;SDS011;59402;48.396;-4.472;2023-01-24T15:17:48;9.93;;;4.75;;
41709;SDS011;59402;48.396;-4.472;2023-01-24T15:20:18;11.80;;;5.50;;
41709;SDS011;59402;48.396;-4.472;2023-01-24T15:22:49;10.30;;;5.97;;
41709;SDS011;59402;48.396;-4.472;2023-01-24T15:25:25;12.05;;;6.93;;
41709;SDS011;59402;48.396;-4.472;2023-01-24T15:27:52;12.32;;;6.55;;
41709;SDS011;59402;48.396;-4.472;2023-01-24T15:30:21;10.35;;;6.65;;
41709;SDS011;59402;48.396;-4.472;2023-01-24T15:40:36;10.77;;;6.28;;
41709;SDS011;59402;48.396;-4.472;2023-01-24T15:46:21;10.85;;;5.60;;
41709;SDS011;59402;48.396;-4.472;2023-01-24T15:49:19;11.48;;;5.25;;
41709;SDS011;59402;48.396;-4.472;2023-01-24T15:51:57;10.02;;;5.18;;
41709;SDS011;59402;48.396;-4.472;2023-01-24T15:54:23;8.32;;;4.65;;
41709;SDS011;59402;48.396;-4.472;2023-01-24T15:56:51;11.57;;;4.68;;
41709;SDS011;59402;48.396;-4.472;2023-01-24T15:59:18;8.57;;;4.60;;
41709;SDS011;59402;48.396;-4.472;2023-01-24T16:01:44;10.48;;;5.63;;
41709;SDS011;59402;48.396;-4.472;2023-01-24T16:04:13;10.88;;;4.90;;
41709;SDS011;59402;48.396;-4.472;2023-01-24T16:06:40;10.57;;;5.75;;
41709;SDS011;59402;48.396;-4.472;2023-01-24T16:09:06;9.52;;;6.10;;
41709;SDS011;59402;48.396;-4.472;2023-01-24T16:11:37;12.73;;;5.50;;
41709;SDS011;59402;48.396;-4.472;2023-01-24T16:14:04;9.88;;;5.32;;
41709;SDS011;59402;48.396;-4.472;2023-01-24T16:16:32;8.27;;;5.38;;
41709;SDS011;59402;48.396;-4.472;2023-01-24T16:18:58;11.82;;;5.65;;
41709;SDS011;59402;48.396;-4.472;2023-01-24T16:21:24;11.73;;;6.70;;
41709;SDS011;59402;48.396;-4.472;2023-01-24T16:23:50;15.27;;;6.70;;
41709;SDS011;59402;48.396;-4.472;2023-01-24T16:26:20;11.88;;;6.65;;
41709;SDS011;59402;48.396;-4.472;2023-01-24T16:28:50;12.68;;;6.72;;
41709;SDS011;59402;48.396;-4.472;2023-01-24T16:31:16;14.00;;;7.47;;
41709;SDS011;59402;48.396;-4.472;2023-01-24T16:33:43;12.02;;;6.57;;
41709;SDS011;59402;48.396;-4.472;2023-01-24T16:36:12;14.70;;;7.20;;
41709;SDS011;59402;48.396;-4.472;2023-01-24T16:38:40;13.57;;;7.82;;
41709;SDS011;59402;48.396;-4.472;2023-01-24T16:41:06;14.10;;;8.02;;
41709;SDS011;59402;48.396;-4.472;2023-01-24T16:43:32;12.35;;;7.43;;
41709;SDS011;59402;48.396;-4.472;2023-01-24T16:45:57;13.85;;;6.43;;
41709;SDS011;59402;48.396;-4.472;2023-01-24T16:48:24;12.80;;;6.20;;
41709;SDS011;59402;48.396;-4.472;2023-01-24T16:50:50;12.02;;;7.07;;
41709;SDS011;59402;48.396;-4.472;2023-01-24T16:53:16;12.70;;;7.72;;
41709;SDS011;59402;48.396;-4.472;2023-01-24T16:55:42;15.82;;;7.22;;
41709;SDS011;59402;48.396;-4.472;2023-01-24T16:58:08;14.15;;;7.40;;
41709;SDS011;59402;48.396;-4.472;2023-01-24T17:00:36;11.85;;;7.22;;
41709;SDS011;59402;48.396;-4.472;2023-01-24T17:03:02;15.38;;;7.75;;
41709;SDS011;59402;48.396;-4.472;2023-01-24T17:05:28;14.00;;;8.50;;